sensor_id;sensor_type;location;lat;lon;timestamp;temperature;humidity
1570;DHT22;778;50.120;8.698;2023-03-17T00:02:07;7.00;99.90
1570;DHT22;778;50.120;8.698;2023-03-17T00:04:35;7.00;99.90
1570;DHT22;778;50.120;8.698;2023-03-17T00:07:05;7.00;99.90
1570;DHT22;778;50.120;8.698;2023-03-17T00:09:34;6.90;99.90
1570;DHT22;778;50.120;8.698;2023-03-17T00:12:08;7.00;99.90
1570;DHT22;778;50.120;8.698;2023-03-17T00:14:37;7.00;99.90
1570;DHT22;778;50.120;8.698;2023-03-17T00:17:09;6.90;99.90
1570;DHT22;778;50.120;8.698;2023-03-17T00:19:41;6.90;99.90
1570;DHT22;778;50.120;8.698;2023-03-17T00:22:16;6.90;99.90
1570;DHT22;778;50.120;8.698;2023-03-17T00:24:45;6.90;99.90
1570;DHT22;778;50.120;8.698;2023-03-17T00:27:14;6.90;99.90
1570;DHT22;778;50.120;8.698;2023-03-17T00:29:43;6.90;99.90
1570;DHT22;778;50.120;8.698;2023-03-17T00:32:15;6.90;99.90
1570;DHT22;778;50.120;8.698;2023-03-17T00:34:45;6.90;99.90
1570;DHT22;778;50.120;8.698;2023-03-17T00:37:16;6.90;99.90
1570;DHT22;778;50.120;8.698;2023-03-17T00:39:45;6.90;99.90
1570;DHT22;778;50.120;8.698;2023-03-17T00:42:15;6.90;99.90
1570;DHT22;778;50.120;8.698;2023-03-17T00:44:43;6.90;99.90
1570;DHT22;778;50.120;8.698;2023-03-17T00:47:12;6.90;99.90
1570;DHT22;778;50.120;8.698;2023-03-17T00:49:41;6.90;99.90
1570;DHT22;778;50.120;8.698;2023-03-17T00:52:09;6.90;99.90
1570;DHT22;778;50.120;8.698;2023-03-17T00:54:41;6.80;99.90
1570;DHT22;778;50.120;8.698;2023-03-17T00:57:10;6.80;99.90
1570;DHT22;778;50.120;8.698;2023-03-17T00:59:40;6.80;99.90
1570;DHT22;778;50.120;8.698;2023-03-17T01:02:10;6.80;99.90
1570;DHT22;778;50.120;8.698;2023-03-17T01:04:39;6.80;99.90
1570;DHT22;778;50.120;8.698;2023-03-17T01:07:19;6.80;99.90
1570;DHT22;778;50.120;8.698;2023-03-17T01:09:49;6.80;99.90
1570;DHT22;778;50.120;8.698;2023-03-17T01:12:17;6.70;99.90
1570;DHT22;778;50.120;8.698;2023-03-17T01:14:48;6.70;99.90
1570;DHT22;778;50.120;8.698;2023-03-17T01:17:17;6.70;99.90
1570;DHT22;778;50.120;8.698;2023-03-17T01:19:48;6.70;99.90
1570;DHT22;778;50.120;8.698;2023-03-17T01:22:17;6.70;99.90
1570;DHT22;778;50.120;8.698;2023-03-17T01:24:47;6.70;99.90
1570;DHT22;778;50.120;8.698;2023-03-17T01:27:17;6.70;99.90
1570;DHT22;778;50.120;8.698;2023-03-17T01:29:45;6.60;99.90
1570;DHT22;778;50.120;8.698;2023-03-17T01:32:13;6.70;99.90
1570;DHT22;778;50.120;8.698;2023-03-17T01:34:42;6.70;99.90
1570;DHT22;778;50.120;8.698;2023-03-17T01:37:10;6.70;99.90
1570;DHT22;778;50.120;8.698;2023-03-17T01:39:39;6.70;99.90
1570;DHT22;778;50.120;8.698;2023-03-17T01:42:09;6.60;99.90
1570;DHT22;778;50.120;8.698;2023-03-17T01:44:56;6.70;99.90
1570;DHT22;778;50.120;8.698;2023-03-17T01:47:29;6.70;99.90
1570;DHT22;778;50.120;8.698;2023-03-17T01:49:59;6.70;99.90
1570;DHT22;778;50.120;8.698;2023-03-17T01:52:33;6.60;99.90
1570;DHT22;778;50.120;8.698;2023-03-17T01:55:04;6.60;99.90
1570;DHT22;778;50.120;8.698;2023-03-17T01:57:37;6.60;99.90
1570;DHT22;778;50.120;8.698;2023-03-17T02:00:10;6.60;99.90
1570;DHT22;778;50.120;8.698;2023-03-17T02:02:42;6.60;99.90
1570;DHT22;778;50.120;8.698;2023-03-17T02:05:14;6.60;99.90
1570;DHT22;778;50.120;8.698;2023-03-17T02:07:45;6.60;99.90
1570;DHT22;778;50.120;8.698;2023-03-17T02:10:15;6.50;99.90
1570;DHT22;778;50.120;8.698;2023-03-17T02:12:49;6.50;99.90
1570;DHT22;778;50.120;8.698;2023-03-17T02:15:18;6.50;99.90
1570;DHT22;778;50.120;8.698;2023-03-17T02:17:47;6.40;99.90
1570;DHT22;778;50.120;8.698;2023-03-17T02:23:42;6.40;99.90
1570;DHT22;778;50.120;8.698;2023-03-17T02:26:11;6.30;99.90
1570;DHT22;778;50.120;8.698;2023-03-17T02:28:40;6.30;99.90
1570;DHT22;778;50.120;8.698;2023-03-17T02:31:11;6.20;99.90
1570;DHT22;778;50.120;8.698;2023-03-17T02:33:40;6.20;99.90
1570;DHT22;778;50.120;8.698;2023-03-17T02:36:09;6.20;99.90
1570;DHT22;778;50.120;8.698;2023-03-17T02:38:37;6.20;99.90
1570;DHT22;778;50.120;8.698;2023-03-17T02:41:07;6.20;99.90
1570;DHT22;778;50.120;8.698;2023-03-17T02:43:36;6.20;99.90
1570;DHT22;778;50.120;8.698;2023-03-17T02:46:04;6.20;99.90
1570;DHT22;778;50.120;8.698;2023-03-17T02:48:35;6.20;99.90
1570;DHT22;778;50.120;8.698;2023-03-17T02:51:04;6.10;99.90
1570;DHT22;778;50.120;8.698;2023-03-17T02:53:32;6.20;99.90
1570;DHT22;778;50.120;8.698;2023-03-17T02:56:01;6.10;99.90
1570;DHT22;778;50.120;8.698;2023-03-17T02:58:31;6.10;99.90
1570;DHT22;778;50.120;8.698;2023-03-17T03:00:59;6.20;99.90
1570;DHT22;778;50.120;8.698;2023-03-17T03:03:28;6.20;99.90
1570;DHT22;778;50.120;8.698;2023-03-17T03:05:56;6.10;99.90
1570;DHT22;778;50.120;8.698;2023-03-17T03:08:29;6.10;99.90
1570;DHT22;778;50.120;8.698;2023-03-17T03:10:57;6.10;99.90
1570;DHT22;778;50.120;8.698;2023-03-17T03:13:28;6.10;99.90
1570;DHT22;778;50.120;8.698;2023-03-17T03:15:58;6.10;99.90
1570;DHT22;778;50.120;8.698;2023-03-17T03:18:27;6.00;99.90
1570;DHT22;778;50.120;8.698;2023-03-17T03:20:55;6.00;99.90
1570;DHT22;778;50.120;8.698;2023-03-17T03:23:23;6.00;99.90
1570;DHT22;778;50.120;8.698;2023-03-17T03:25:52;5.90;99.90
1570;DHT22;778;50.120;8.698;2023-03-17T03:28:20;5.90;99.90
1570;DHT22;778;50.120;8.698;2023-03-17T03:30:49;5.90;99.90
1570;DHT22;778;50.120;8.698;2023-03-17T03:33:19;5.80;99.90
1570;DHT22;778;50.120;8.698;2023-03-17T03:35:47;5.80;99.90
1570;DHT22;778;50.120;8.698;2023-03-17T03:38:16;5.80;99.90
1570;DHT22;778;50.120;8.698;2023-03-17T03:40:45;5.70;99.90
1570;DHT22;778;50.120;8.698;2023-03-17T03:43:13;5.70;99.90
1570;DHT22;778;50.120;8.698;2023-03-17T03:45:49;5.70;99.90
1570;DHT22;778;50.120;8.698;2023-03-17T03:48:20;5.60;99.90
1570;DHT22;778;50.120;8.698;2023-03-17T03:50:48;5.60;99.90
1570;DHT22;778;50.120;8.698;2023-03-17T03:53:17;5.60;99.90
1570;DHT22;778;50.120;8.698;2023-03-17T03:55:45;5.60;99.90
1570;DHT22;778;50.120;8.698;2023-03-17T03:58:14;5.60;99.90
1570;DHT22;778;50.120;8.698;2023-03-17T04:00:42;5.60;99.90
1570;DHT22;778;50.120;8.698;2023-03-17T04:03:11;5.60;99.90
1570;DHT22;778;50.120;8.698;2023-03-17T04:05:41;5.60;99.90
1570;DHT22;778;50.120;8.698;2023-03-17T04:08:10;5.60;99.90
1570;DHT22;778;50.120;8.698;2023-03-17T04:10:38;5.50;99.90
1570;DHT22;778;50.120;8.698;2023-03-17T04:13:07;5.50;99.90
1570;DHT22;778;50.120;8.698;2023-03-17T04:15:35;5.60;99.90
1570;DHT22;778;50.120;8.698;2023-03-17T04:18:03;5.50;99.90
1570;DHT22;778;50.120;8.698;2023-03-17T04:20:32;5.50;99.90
1570;DHT22;778;50.120;8.698;2023-03-17T04:23:02;5.60;99.90
1570;DHT22;778;50.120;8.698;2023-03-17T04:25:30;5.60;99.90
1570;DHT22;778;50.120;8.698;2023-03-17T04:27:59;5.50;99.90
1570;DHT22;778;50.120;8.698;2023-03-17T04:30:27;5.50;99.90
1570;DHT22;778;50.120;8.698;2023-03-17T04:32:56;5.50;99.90
1570;DHT22;778;50.120;8.698;2023-03-17T04:35:25;5.50;99.90
1570;DHT22;778;50.120;8.698;2023-03-17T04:37:53;5.50;99.90
1570;DHT22;778;50.120;8.698;2023-03-17T04:40:23;5.50;99.90
1570;DHT22;778;50.120;8.698;2023-03-17T04:42:52;5.40;99.90
1570;DHT22;778;50.120;8.698;2023-03-17T04:45:21;5.40;99.90
1570;DHT22;778;50.120;8.698;2023-03-17T04:47:50;5.40;99.90
1570;DHT22;778;50.120;8.698;2023-03-17T04:50:19;5.40;99.90
1570;DHT22;778;50.120;8.698;2023-03-17T04:52:47;5.40;99.90
1570;DHT22;778;50.120;8.698;2023-03-17T04:55:16;5.40;99.90
1570;DHT22;778;50.120;8.698;2023-03-17T04:57:46;5.30;99.90
1570;DHT22;778;50.120;8.698;2023-03-17T05:00:15;5.40;99.90
1570;DHT22;778;50.120;8.698;2023-03-17T05:02:44;5.40;99.90
1570;DHT22;778;50.120;8.698;2023-03-17T05:05:12;5.40;99.90
1570;DHT22;778;50.120;8.698;2023-03-17T05:07:41;5.40;99.90
1570;DHT22;778;50.120;8.698;2023-03-17T05:10:11;5.40;99.90
1570;DHT22;778;50.120;8.698;2023-03-17T05:12:39;5.40;99.90
1570;DHT22;778;50.120;8.698;2023-03-17T05:15:10;5.30;99.90
1570;DHT22;778;50.120;8.698;2023-03-17T05:17:39;5.30;99.90
1570;DHT22;778;50.120;8.698;2023-03-17T05:20:08;5.20;99.90
1570;DHT22;778;50.120;8.698;2023-03-17T05:22:38;5.10;99.90
1570;DHT22;778;50.120;8.698;2023-03-17T05:25:08;5.10;99.90
1570;DHT22;778;50.120;8.698;2023-03-17T05:27:36;5.10;99.90
1570;DHT22;778;50.120;8.698;2023-03-17T05:30:06;5.10;99.90
1570;DHT22;778;50.120;8.698;2023-03-17T05:32:37;5.00;99.90
1570;DHT22;778;50.120;8.698;2023-03-17T05:35:06;5.10;99.90
1570;DHT22;778;50.120;8.698;2023-03-17T05:37:35;5.00;99.90
1570;DHT22;778;50.120;8.698;2023-03-17T05:40:04;5.00;99.90
1570;DHT22;778;50.120;8.698;2023-03-17T05:42:34;5.00;99.90
1570;DHT22;778;50.120;8.698;2023-03-17T05:45:03;5.00;99.90
1570;DHT22;778;50.120;8.698;2023-03-17T05:47:33;5.00;99.90
1570;DHT22;778;50.120;8.698;2023-03-17T05:50:04;5.00;99.90
1570;DHT22;778;50.120;8.698;2023-03-17T05:52:33;5.10;99.90
1570;DHT22;778;50.120;8.698;2023-03-17T05:55:03;5.10;99.90
1570;DHT22;778;50.120;8.698;2023-03-17T05:57:32;5.10;99.90
1570;DHT22;778;50.120;8.698;2023-03-17T06:00:00;5.10;99.90
1570;DHT22;778;50.120;8.698;2023-03-17T06:02:31;5.00;99.90
1570;DHT22;778;50.120;8.698;2023-03-17T06:05:03;5.00;99.90
1570;DHT22;778;50.120;8.698;2023-03-17T06:07:32;5.00;99.90
1570;DHT22;778;50.120;8.698;2023-03-17T06:10:17;5.00;99.90
1570;DHT22;778;50.120;8.698;2023-03-17T06:12:45;5.00;99.90
1570;DHT22;778;50.120;8.698;2023-03-17T06:15:14;5.00;99.90
1570;DHT22;778;50.120;8.698;2023-03-17T06:17:43;5.00;99.90
1570;DHT22;778;50.120;8.698;2023-03-17T06:20:13;5.00;99.90
1570;DHT22;778;50.120;8.698;2023-03-17T06:22:43;5.00;99.90
1570;DHT22;778;50.120;8.698;2023-03-17T06:25:29;5.10;99.90
1570;DHT22;778;50.120;8.698;2023-03-17T06:27:58;5.10;99.90
1570;DHT22;778;50.120;8.698;2023-03-17T06:30:28;5.10;99.90
1570;DHT22;778;50.120;8.698;2023-03-17T06:32:59;5.10;99.90
1570;DHT22;778;50.120;8.698;2023-03-17T06:35:30;5.20;99.90
1570;DHT22;778;50.120;8.698;2023-03-17T06:37:59;5.20;99.90
1570;DHT22;778;50.120;8.698;2023-03-17T06:40:29;5.30;99.90
1570;DHT22;778;50.120;8.698;2023-03-17T06:43:00;5.30;99.90
1570;DHT22;778;50.120;8.698;2023-03-17T06:45:29;5.30;99.90
1570;DHT22;778;50.120;8.698;2023-03-17T06:47:59;5.30;99.90
1570;DHT22;778;50.120;8.698;2023-03-17T06:50:28;5.30;99.90
1570;DHT22;778;50.120;8.698;2023-03-17T06:52:57;5.40;99.90
1570;DHT22;778;50.120;8.698;2023-03-17T06:55:26;5.50;99.90
1570;DHT22;778;50.120;8.698;2023-03-17T06:57:55;5.40;99.90
1570;DHT22;778;50.120;8.698;2023-03-17T07:00:25;5.50;99.90
1570;DHT22;778;50.120;8.698;2023-03-17T07:02:54;5.50;99.90
1570;DHT22;778;50.120;8.698;2023-03-17T07:05:23;5.60;99.90
1570;DHT22;778;50.120;8.698;2023-03-17T07:07:53;5.60;99.90
1570;DHT22;778;50.120;8.698;2023-03-17T07:10:21;5.70;99.90
1570;DHT22;778;50.120;8.698;2023-03-17T07:12:50;5.70;99.90
1570;DHT22;778;50.120;8.698;2023-03-17T07:15:19;5.80;99.90
1570;DHT22;778;50.120;8.698;2023-03-17T07:17:48;5.90;99.90
1570;DHT22;778;50.120;8.698;2023-03-17T07:20:17;6.00;99.90
1570;DHT22;778;50.120;8.698;2023-03-17T07:22:46;6.00;99.90
1570;DHT22;778;50.120;8.698;2023-03-17T07:25:16;6.10;99.90
1570;DHT22;778;50.120;8.698;2023-03-17T07:27:45;6.20;99.90
1570;DHT22;778;50.120;8.698;2023-03-17T07:30:14;6.30;99.90
1570;DHT22;778;50.120;8.698;2023-03-17T07:32:45;6.50;99.90
1570;DHT22;778;50.120;8.698;2023-03-17T07:35:14;6.60;99.90
1570;DHT22;778;50.120;8.698;2023-03-17T07:37:43;6.70;99.90
1570;DHT22;778;50.120;8.698;2023-03-17T07:40:12;6.90;99.90
1570;DHT22;778;50.120;8.698;2023-03-17T07:42:42;7.00;99.90
1570;DHT22;778;50.120;8.698;2023-03-17T07:45:11;7.20;99.90
1570;DHT22;778;50.120;8.698;2023-03-17T07:47:40;7.30;99.90
1570;DHT22;778;50.120;8.698;2023-03-17T07:50:09;7.40;99.90
1570;DHT22;778;50.120;8.698;2023-03-17T07:52:38;7.50;99.90
1570;DHT22;778;50.120;8.698;2023-03-17T07:55:08;7.70;99.90
1570;DHT22;778;50.120;8.698;2023-03-17T07:57:38;7.90;99.90
1570;DHT22;778;50.120;8.698;2023-03-17T08:00:10;8.10;99.90
1570;DHT22;778;50.120;8.698;2023-03-17T08:02:39;8.20;99.90
1570;DHT22;778;50.120;8.698;2023-03-17T08:05:09;8.30;99.90
1570;DHT22;778;50.120;8.698;2023-03-17T08:07:38;8.60;99.90
1570;DHT22;778;50.120;8.698;2023-03-17T08:10:07;8.80;99.90
1570;DHT22;778;50.120;8.698;2023-03-17T08:12:39;9.00;99.90
1570;DHT22;778;50.120;8.698;2023-03-17T08:15:10;9.70;99.90
1570;DHT22;778;50.120;8.698;2023-03-17T08:17:39;10.50;99.90
1570;DHT22;778;50.120;8.698;2023-03-17T08:20:09;11.00;99.90
1570;DHT22;778;50.120;8.698;2023-03-17T08:22:39;11.30;99.90
1570;DHT22;778;50.120;8.698;2023-03-17T08:25:08;11.90;99.90
1570;DHT22;778;50.120;8.698;2023-03-17T08:27:37;12.50;97.30
1570;DHT22;778;50.120;8.698;2023-03-17T08:30:07;13.00;95.80
1570;DHT22;778;50.120;8.698;2023-03-17T08:32:38;13.00;95.60
1570;DHT22;778;50.120;8.698;2023-03-17T08:35:10;13.30;93.70
1570;DHT22;778;50.120;8.698;2023-03-17T08:37:41;13.40;90.60
1570;DHT22;778;50.120;8.698;2023-03-17T08:40:10;13.20;90.70
1570;DHT22;778;50.120;8.698;2023-03-17T08:42:39;13.40;94.20
1570;DHT22;778;50.120;8.698;2023-03-17T08:45:10;13.70;89.30
1570;DHT22;778;50.120;8.698;2023-03-17T08:47:39;13.70;87.60
1570;DHT22;778;50.120;8.698;2023-03-17T08:50:09;13.50;86.70
1570;DHT22;778;50.120;8.698;2023-03-17T08:52:41;13.40;87.70
1570;DHT22;778;50.120;8.698;2023-03-17T08:55:10;13.50;88.60
1570;DHT22;778;50.120;8.698;2023-03-17T08:57:39;13.60;89.50
1570;DHT22;778;50.120;8.698;2023-03-17T09:00:12;13.60;90.30
1570;DHT22;778;50.120;8.698;2023-03-17T09:02:42;13.60;85.30
1570;DHT22;778;50.120;8.698;2023-03-17T09:05:11;14.10;89.80
1570;DHT22;778;50.120;8.698;2023-03-17T09:07:41;14.30;82.60
1570;DHT22;778;50.120;8.698;2023-03-17T09:10:11;14.20;81.10
1570;DHT22;778;50.120;8.698;2023-03-17T09:12:40;14.10;80.80
1570;DHT22;778;50.120;8.698;2023-03-17T09:15:11;14.40;83.10
1570;DHT22;778;50.120;8.698;2023-03-17T09:17:40;14.30;78.10
1570;DHT22;778;50.120;8.698;2023-03-17T09:20:10;14.30;78.50
1570;DHT22;778;50.120;8.698;2023-03-17T09:22:39;14.30;78.60
1570;DHT22;778;50.120;8.698;2023-03-17T09:25:08;14.50;76.40
1570;DHT22;778;50.120;8.698;2023-03-17T09:27:36;14.10;77.10
1570;DHT22;778;50.120;8.698;2023-03-17T09:30:06;14.20;78.80
1570;DHT22;778;50.120;8.698;2023-03-17T09:32:37;14.30;77.60
1570;DHT22;778;50.120;8.698;2023-03-17T09:35:06;14.10;76.90
1570;DHT22;778;50.120;8.698;2023-03-17T09:37:36;14.00;77.20
1570;DHT22;778;50.120;8.698;2023-03-17T09:40:05;13.60;78.30
1570;DHT22;778;50.120;8.698;2023-03-17T09:42:46;13.40;81.40
1570;DHT22;778;50.120;8.698;2023-03-17T09:45:30;13.50;87.00
1570;DHT22;778;50.120;8.698;2023-03-17T09:48:19;13.40;83.50
1570;DHT22;778;50.120;8.698;2023-03-17T09:51:04;13.20;82.90
1570;DHT22;778;50.120;8.698;2023-03-17T09:53:35;13.40;85.40
1570;DHT22;778;50.120;8.698;2023-03-17T09:56:12;13.50;87.40
1570;DHT22;778;50.120;8.698;2023-03-17T09:58:46;13.60;87.00
1570;DHT22;778;50.120;8.698;2023-03-17T10:01:18;13.50;84.00
1570;DHT22;778;50.120;8.698;2023-03-17T10:03:48;13.30;84.90
1570;DHT22;778;50.120;8.698;2023-03-17T10:06:28;13.40;85.90
1570;DHT22;778;50.120;8.698;2023-03-17T10:09:06;13.40;87.70
1570;DHT22;778;50.120;8.698;2023-03-17T10:11:42;13.50;87.00
1570;DHT22;778;50.120;8.698;2023-03-17T10:14:24;13.30;85.20
1570;DHT22;778;50.120;8.698;2023-03-17T10:17:02;13.40;86.00
1570;DHT22;778;50.120;8.698;2023-03-17T10:19:37;13.50;86.70
1570;DHT22;778;50.120;8.698;2023-03-17T10:22:14;13.50;86.60
1570;DHT22;778;50.120;8.698;2023-03-17T10:24:51;13.40;87.20
1570;DHT22;778;50.120;8.698;2023-03-17T10:27:22;13.50;87.20
1570;DHT22;778;50.120;8.698;2023-03-17T10:29:50;13.50;87.60
1570;DHT22;778;50.120;8.698;2023-03-17T10:32:19;13.50;88.10
1570;DHT22;778;50.120;8.698;2023-03-17T10:34:49;13.50;89.10
1570;DHT22;778;50.120;8.698;2023-03-17T10:37:19;13.50;87.30
1570;DHT22;778;50.120;8.698;2023-03-17T10:39:52;13.50;87.30
1570;DHT22;778;50.120;8.698;2023-03-17T10:42:23;13.70;90.20
1570;DHT22;778;50.120;8.698;2023-03-17T10:44:54;13.80;89.00
1570;DHT22;778;50.120;8.698;2023-03-17T10:47:34;14.10;87.00
1570;DHT22;778;50.120;8.698;2023-03-17T10:50:19;14.30;85.10
1570;DHT22;778;50.120;8.698;2023-03-17T10:52:52;14.30;85.00
1570;DHT22;778;50.120;8.698;2023-03-17T10:55:27;14.40;82.80
1570;DHT22;778;50.120;8.698;2023-03-17T10:58:02;14.40;84.50
1570;DHT22;778;50.120;8.698;2023-03-17T11:00:34;14.50;82.00
1570;DHT22;778;50.120;8.698;2023-03-17T11:03:13;14.40;82.00
1570;DHT22;778;50.120;8.698;2023-03-17T11:05:54;14.60;81.30
1570;DHT22;778;50.120;8.698;2023-03-17T11:08:23;14.80;79.50
1570;DHT22;778;50.120;8.698;2023-03-17T11:10:54;15.00;78.30
1570;DHT22;778;50.120;8.698;2023-03-17T11:13:27;15.20;81.00
1570;DHT22;778;50.120;8.698;2023-03-17T11:16:06;15.30;77.70
1570;DHT22;778;50.120;8.698;2023-03-17T11:18:38;15.20;77.20
1570;DHT22;778;50.120;8.698;2023-03-17T11:21:10;15.30;78.10
1570;DHT22;778;50.120;8.698;2023-03-17T11:23:50;15.40;75.10
1570;DHT22;778;50.120;8.698;2023-03-17T11:26:46;15.60;75.40
1570;DHT22;778;50.120;8.698;2023-03-17T11:29:23;15.50;73.90
1570;DHT22;778;50.120;8.698;2023-03-17T11:31:59;15.30;73.80
1570;DHT22;778;50.120;8.698;2023-03-17T11:34:49;15.40;73.20
1570;DHT22;778;50.120;8.698;2023-03-17T11:37:33;15.50;74.60
1570;DHT22;778;50.120;8.698;2023-03-17T11:40:16;15.70;74.20
1570;DHT22;778;50.120;8.698;2023-03-17T11:43:06;15.50;72.90
1570;DHT22;778;50.120;8.698;2023-03-17T11:45:44;15.40;73.60
1570;DHT22;778;50.120;8.698;2023-03-17T11:48:33;15.30;73.60
1570;DHT22;778;50.120;8.698;2023-03-17T11:51:13;15.40;73.50
1570;DHT22;778;50.120;8.698;2023-03-17T11:53:58;15.50;73.90
1570;DHT22;778;50.120;8.698;2023-03-17T11:56:38;15.40;75.00
1570;DHT22;778;50.120;8.698;2023-03-17T11:59:18;15.50;74.80
1570;DHT22;778;50.120;8.698;2023-03-17T12:01:57;15.80;74.20
1570;DHT22;778;50.120;8.698;2023-03-17T12:04:34;15.80;73.50
1570;DHT22;778;50.120;8.698;2023-03-17T12:07:12;15.90;73.90
1570;DHT22;778;50.120;8.698;2023-03-17T12:09:54;16.00;72.60
1570;DHT22;778;50.120;8.698;2023-03-17T12:12:29;16.10;71.60
1570;DHT22;778;50.120;8.698;2023-03-17T12:15:00;16.00;70.80
1570;DHT22;778;50.120;8.698;2023-03-17T12:17:34;15.90;71.20
1570;DHT22;778;50.120;8.698;2023-03-17T12:20:17;16.00;71.60
1570;DHT22;778;50.120;8.698;2023-03-17T12:22:52;16.00;71.20
1570;DHT22;778;50.120;8.698;2023-03-17T12:25:30;15.90;70.60
1570;DHT22;778;50.120;8.698;2023-03-17T12:28:03;15.80;72.30
1570;DHT22;778;50.120;8.698;2023-03-17T12:30:42;15.90;71.50
1570;DHT22;778;50.120;8.698;2023-03-17T12:33:20;15.80;72.60
1570;DHT22;778;50.120;8.698;2023-03-17T12:35:55;15.80;72.90
1570;DHT22;778;50.120;8.698;2023-03-17T12:38:33;15.80;72.00
1570;DHT22;778;50.120;8.698;2023-03-17T12:44:06;15.90;72.30
1570;DHT22;778;50.120;8.698;2023-03-17T12:47:15;15.80;73.20
1570;DHT22;778;50.120;8.698;2023-03-17T12:50:08;15.70;74.20
1570;DHT22;778;50.120;8.698;2023-03-17T12:55:59;15.60;75.00
1570;DHT22;778;50.120;8.698;2023-03-17T12:58:37;15.60;76.20
1570;DHT22;778;50.120;8.698;2023-03-17T13:01:14;15.60;78.10
1570;DHT22;778;50.120;8.698;2023-03-17T13:03:59;15.60;75.30
1570;DHT22;778;50.120;8.698;2023-03-17T13:06:35;15.70;75.40
1570;DHT22;778;50.120;8.698;2023-03-17T13:09:28;15.70;76.60
1570;DHT22;778;50.120;8.698;2023-03-17T13:12:34;15.80;76.30
1570;DHT22;778;50.120;8.698;2023-03-17T13:15:32;15.80;79.00
1570;DHT22;778;50.120;8.698;2023-03-17T13:18:43;15.80;76.70
1570;DHT22;778;50.120;8.698;2023-03-17T13:21:17;15.70;76.70
1570;DHT22;778;50.120;8.698;2023-03-17T13:23:58;15.70;76.90
1570;DHT22;778;50.120;8.698;2023-03-17T13:26:53;15.80;77.20
1570;DHT22;778;50.120;8.698;2023-03-17T13:29:44;15.80;77.70
1570;DHT22;778;50.120;8.698;2023-03-17T13:32:36;15.70;76.10
1570;DHT22;778;50.120;8.698;2023-03-17T13:35:19;15.70;75.90
1570;DHT22;778;50.120;8.698;2023-03-17T13:41:33;15.80;76.20
1570;DHT22;778;50.120;8.698;2023-03-17T13:44:29;15.90;76.50
1570;DHT22;778;50.120;8.698;2023-03-17T13:47:26;15.90;77.30
1570;DHT22;778;50.120;8.698;2023-03-17T13:50:05;15.90;76.00
1570;DHT22;778;50.120;8.698;2023-03-17T13:52:39;15.90;78.40
1570;DHT22;778;50.120;8.698;2023-03-17T13:55:32;15.80;81.40
1570;DHT22;778;50.120;8.698;2023-03-17T13:58:23;15.80;81.60
1570;DHT22;778;50.120;8.698;2023-03-17T14:00:58;15.80;81.50
1570;DHT22;778;50.120;8.698;2023-03-17T14:03:35;15.80;82.50
1570;DHT22;778;50.120;8.698;2023-03-17T14:06:10;15.70;82.00
1570;DHT22;778;50.120;8.698;2023-03-17T14:08:44;15.80;85.50
1570;DHT22;778;50.120;8.698;2023-03-17T14:11:23;15.70;85.10
1570;DHT22;778;50.120;8.698;2023-03-17T14:14:13;15.70;84.80
1570;DHT22;778;50.120;8.698;2023-03-17T14:17:03;15.70;83.70
1570;DHT22;778;50.120;8.698;2023-03-17T14:19:36;15.80;85.00
1570;DHT22;778;50.120;8.698;2023-03-17T14:22:20;15.80;84.10
1570;DHT22;778;50.120;8.698;2023-03-17T14:24:51;15.80;84.00
1570;DHT22;778;50.120;8.698;2023-03-17T14:27:21;15.90;86.30
1570;DHT22;778;50.120;8.698;2023-03-17T14:29:51;15.90;87.10
1570;DHT22;778;50.120;8.698;2023-03-17T14:32:20;15.90;86.60
1570;DHT22;778;50.120;8.698;2023-03-17T14:34:56;15.90;86.20
1570;DHT22;778;50.120;8.698;2023-03-17T14:37:27;15.90;85.80
1570;DHT22;778;50.120;8.698;2023-03-17T14:39:57;15.90;86.60
1570;DHT22;778;50.120;8.698;2023-03-17T14:42:27;15.90;85.10
1570;DHT22;778;50.120;8.698;2023-03-17T14:45:01;16.00;85.70
1570;DHT22;778;50.120;8.698;2023-03-17T14:47:35;16.00;85.60
1570;DHT22;778;50.120;8.698;2023-03-17T14:50:13;16.00;85.20
1570;DHT22;778;50.120;8.698;2023-03-17T14:52:45;16.00;85.70
1570;DHT22;778;50.120;8.698;2023-03-17T14:55:15;16.00;87.30
1570;DHT22;778;50.120;8.698;2023-03-17T14:57:48;16.10;87.70
1570;DHT22;778;50.120;8.698;2023-03-17T15:00:31;16.00;88.20
1570;DHT22;778;50.120;8.698;2023-03-17T15:03:12;16.00;84.10
1570;DHT22;778;50.120;8.698;2023-03-17T15:05:44;16.00;88.80
1570;DHT22;778;50.120;8.698;2023-03-17T15:08:38;16.00;83.50
1570;DHT22;778;50.120;8.698;2023-03-17T15:11:16;16.00;83.30
1570;DHT22;778;50.120;8.698;2023-03-17T15:13:47;16.00;86.00
1570;DHT22;778;50.120;8.698;2023-03-17T15:16:21;16.00;87.30
1570;DHT22;778;50.120;8.698;2023-03-17T15:19:04;16.00;85.70
1570;DHT22;778;50.120;8.698;2023-03-17T15:21:37;16.00;85.90
1570;DHT22;778;50.120;8.698;2023-03-17T15:24:35;16.00;87.20
1570;DHT22;778;50.120;8.698;2023-03-17T15:27:12;15.90;90.50
1570;DHT22;778;50.120;8.698;2023-03-17T15:29:41;15.90;89.10
1570;DHT22;778;50.120;8.698;2023-03-17T15:32:12;15.90;89.90
1570;DHT22;778;50.120;8.698;2023-03-17T15:34:41;15.80;90.20
1570;DHT22;778;50.120;8.698;2023-03-17T15:37:18;15.90;91.60
1570;DHT22;778;50.120;8.698;2023-03-17T15:39:49;16.00;92.00
1570;DHT22;778;50.120;8.698;2023-03-17T15:42:20;16.00;90.30
1570;DHT22;778;50.120;8.698;2023-03-17T15:44:51;15.90;90.70
1570;DHT22;778;50.120;8.698;2023-03-17T15:47:23;15.90;91.30
1570;DHT22;778;50.120;8.698;2023-03-17T15:49:56;15.90;91.70
1570;DHT22;778;50.120;8.698;2023-03-17T15:52:26;15.90;90.90
1570;DHT22;778;50.120;8.698;2023-03-17T15:54:58;15.90;91.40
1570;DHT22;778;50.120;8.698;2023-03-17T15:57:26;15.80;91.60
1570;DHT22;778;50.120;8.698;2023-03-17T15:59:55;15.80;91.70
1570;DHT22;778;50.120;8.698;2023-03-17T16:02:28;15.80;93.20
1570;DHT22;778;50.120;8.698;2023-03-17T16:04:58;15.70;94.30
1570;DHT22;778;50.120;8.698;2023-03-17T16:07:28;15.70;93.50
1570;DHT22;778;50.120;8.698;2023-03-17T16:09:58;15.70;94.40
1570;DHT22;778;50.120;8.698;2023-03-17T16:12:27;15.60;95.10
1570;DHT22;778;50.120;8.698;2023-03-17T16:14:55;15.60;95.70
1570;DHT22;778;50.120;8.698;2023-03-17T16:17:25;15.60;96.30
1570;DHT22;778;50.120;8.698;2023-03-17T16:19:56;15.50;96.00
1570;DHT22;778;50.120;8.698;2023-03-17T16:22:37;15.50;95.60
1570;DHT22;778;50.120;8.698;2023-03-17T16:25:22;15.40;96.10
1570;DHT22;778;50.120;8.698;2023-03-17T16:27:54;15.30;96.00
1570;DHT22;778;50.120;8.698;2023-03-17T16:30:25;15.30;96.80
1570;DHT22;778;50.120;8.698;2023-03-17T16:32:58;15.30;96.90
1570;DHT22;778;50.120;8.698;2023-03-17T16:35:28;15.20;96.60
1570;DHT22;778;50.120;8.698;2023-03-17T16:37:57;15.20;95.70
1570;DHT22;778;50.120;8.698;2023-03-17T16:40:28;15.10;96.30
1570;DHT22;778;50.120;8.698;2023-03-17T16:43:03;15.10;95.70
1570;DHT22;778;50.120;8.698;2023-03-17T16:45:41;15.10;96.30
1570;DHT22;778;50.120;8.698;2023-03-17T16:48:12;15.00;96.40
1570;DHT22;778;50.120;8.698;2023-03-17T16:50:41;15.00;96.00
1570;DHT22;778;50.120;8.698;2023-03-17T16:53:10;15.00;96.80
1570;DHT22;778;50.120;8.698;2023-03-17T16:55:40;14.90;98.20
1570;DHT22;778;50.120;8.698;2023-03-17T16:58:14;14.90;98.30
1570;DHT22;778;50.120;8.698;2023-03-17T17:00:46;14.80;97.60
1570;DHT22;778;50.120;8.698;2023-03-17T17:03:15;14.80;97.70
1570;DHT22;778;50.120;8.698;2023-03-17T17:05:44;14.80;98.90
1570;DHT22;778;50.120;8.698;2023-03-17T17:08:13;14.70;99.90
1570;DHT22;778;50.120;8.698;2023-03-17T17:10:43;14.70;99.80
1570;DHT22;778;50.120;8.698;2023-03-17T17:13:12;14.60;99.90
1570;DHT22;778;50.120;8.698;2023-03-17T17:15:40;14.60;99.90
1570;DHT22;778;50.120;8.698;2023-03-17T17:18:13;14.60;99.90